West Penn, Pennsylvania
Current Conditions -  °F | °C
As of 11:35 AM on Saturday 20 Dec 2014 (Local Time) from KHZL Reporting Station
Overcast Overcast  
Wind Chill: 23°   Ceiling: 1400
Heat Index: 28°   Visibility: 10mi
Dew Point: 21°   Wind: 5mph
Humidity: 74%   Direction: 340°NNW
Pressure: 30.22"   Gusts: NA
Location:  40.7138°N, 75.9395°W
Report Text: KHZL 201635Z AUTO 34004KT 10SM OVC014 M02/M06 A3022 RMK AO2
Loading
Personal Weather Stations






























Interactive Weather Map New forecast layout! Learn more

10-Day Weather Forecast

Advertisements
Track Severe Weather on mobile